sensor_id;sensor_type;location;lat;lon;timestamp;pressure;altitude;pressure_sealevel;temperature;humidity
60212;BME280;46079;48.686;15.598;2023-04-21T00:01:18;99830.69;;;18.84;49.11
60212;BME280;46079;48.686;15.598;2023-04-21T00:03:43;99838.31;;;18.87;48.79
60212;BME280;46079;48.686;15.598;2023-04-21T00:06:09;99834.00;;;18.86;49.04
60212;BME280;46079;48.686;15.598;2023-04-21T00:08:35;99831.28;;;18.87;48.81
60212;BME280;46079;48.686;15.598;2023-04-21T00:11:07;99831.41;;;18.86;48.69
60212;BME280;46079;48.686;15.598;2023-04-21T00:13:33;99831.28;;;18.87;49.07
60212;BME280;46079;48.686;15.598;2023-04-21T00:15:59;99825.22;;;18.87;49.07
60212;BME280;46079;48.686;15.598;2023-04-21T00:18:24;99815.66;;;18.86;49.10
60212;BME280;46079;48.686;15.598;2023-04-21T00:20:49;99823.53;;;18.86;49.09
60212;BME280;46079;48.686;15.598;2023-04-21T00:23:15;99815.81;;;18.84;49.11
60212;BME280;46079;48.686;15.598;2023-04-21T00:25:41;99823.53;;;18.86;49.10
60212;BME280;46079;48.686;15.598;2023-04-21T00:28:06;99834.00;;;18.86;49.35
60212;BME280;46079;48.686;15.598;2023-04-21T00:30:31;99828.78;;;18.86;49.13
60212;BME280;46079;48.686;15.598;2023-04-21T00:32:57;99827.94;;;18.85;49.37
60212;BME280;46079;48.686;15.598;2023-04-21T00:35:22;99835.00;;;18.85;49.29
60212;BME280;46079;48.686;15.598;2023-04-21T00:37:48;99827.13;;;18.85;49.37
60212;BME280;46079;48.686;15.598;2023-04-21T00:40:14;99831.53;;;18.84;49.28
60212;BME280;46079;48.686;15.598;2023-04-21T00:42:40;99830.56;;;18.85;49.16
60212;BME280;46079;48.686;15.598;2023-04-21T00:45:06;99824.50;;;18.85;49.22
60212;BME280;46079;48.686;15.598;2023-04-21T00:47:31;99822.97;;;18.82;48.75
60212;BME280;46079;48.686;15.598;2023-04-21T00:49:57;99823.78;;;18.83;49.18
60212;BME280;46079;48.686;15.598;2023-04-21T00:52:23;99828.91;;;18.84;49.17
60212;BME280;46079;48.686;15.598;2023-04-21T00:54:48;99831.53;;;18.84;49.18
60212;BME280;46079;48.686;15.598;2023-04-21T00:57:14;99830.69;;;18.84;49.01
60212;BME280;46079;48.686;15.598;2023-04-21T00:59:40;99830.69;;;18.84;49.12
60212;BME280;46079;48.686;15.598;2023-04-21T01:02:06;99829.75;;;18.85;49.02
60212;BME280;46079;48.686;15.598;2023-04-21T01:04:31;99835.81;;;18.85;48.86
60212;BME280;46079;48.686;15.598;2023-04-21T01:07:03;99832.63;;;18.82;48.82
60212;BME280;46079;48.686;15.598;2023-04-21T01:09:28;99843.69;;;18.85;49.00
60212;BME280;46079;48.686;15.598;2023-04-21T01:12:11;99839.25;;;18.86;48.72
60212;BME280;46079;48.686;15.598;2023-04-21T01:14:38;99843.56;;;18.87;49.38
60212;BME280;46079;48.686;15.598;2023-04-21T01:17:05;99838.31;;;18.87;49.06
60212;BME280;46079;48.686;15.598;2023-04-21T01:19:35;99833.91;;;18.87;49.19
60212;BME280;46079;48.686;15.598;2023-04-21T01:22:03;99829.59;;;18.86;49.28
60212;BME280;46079;48.686;15.598;2023-04-21T01:24:41;99833.19;;;18.85;49.07
60212;BME280;46079;48.686;15.598;2023-04-21T01:27:14;99825.44;;;18.84;49.10
60212;BME280;46079;48.686;15.598;2023-04-21T01:29:41;99824.50;;;18.85;49.35
60212;BME280;46079;48.686;15.598;2023-04-21T01:32:10;99825.31;;;18.85;49.08
60212;BME280;46079;48.686;15.598;2023-04-21T01:34:38;99826.31;;;18.84;49.47
60212;BME280;46079;48.686;15.598;2023-04-21T01:37:09;99828.06;;;18.84;49.46
60212;BME280;46079;48.686;15.598;2023-04-21T01:39:44;99821.88;;;18.85;49.31
60212;BME280;46079;48.686;15.598;2023-04-21T01:42:10;99823.78;;;18.83;49.08
60212;BME280;46079;48.686;15.598;2023-04-21T01:44:36;99832.38;;;18.85;49.25
60212;BME280;46079;48.686;15.598;2023-04-21T01:47:01;99829.88;;;18.83;49.25
60212;BME280;46079;48.686;15.598;2023-04-21T01:49:27;99826.41;;;18.83;49.30
60212;BME280;46079;48.686;15.598;2023-04-21T01:51:53;99830.69;;;18.84;49.10
60212;BME280;46079;48.686;15.598;2023-04-21T01:54:18;99829.88;;;18.83;49.12
60212;BME280;46079;48.686;15.598;2023-04-21T01:56:43;99829.75;;;18.85;49.32
60212;BME280;46079;48.686;15.598;2023-04-21T01:59:09;99828.91;;;18.84;49.33
60212;BME280;46079;48.686;15.598;2023-04-21T02:01:34;99818.56;;;18.83;49.32
60212;BME280;46079;48.686;15.598;2023-04-21T02:04:04;99831.66;;;18.83;49.36
60212;BME280;46079;48.686;15.598;2023-04-21T02:06:29;99818.56;;;18.83;49.22
60212;BME280;46079;48.686;15.598;2023-04-21T02:08:58;99825.44;;;18.84;49.27
60212;BME280;46079;48.686;15.598;2023-04-21T02:11:24;99825.44;;;18.84;49.25
60212;BME280;46079;48.686;15.598;2023-04-21T02:13:54;99833.31;;;18.84;49.04
60212;BME280;46079;48.686;15.598;2023-04-21T02:16:20;99829.88;;;18.83;48.90
60212;BME280;46079;48.686;15.598;2023-04-21T02:18:50;99828.06;;;18.84;49.40
60212;BME280;46079;48.686;15.598;2023-04-21T02:21:16;99829.88;;;18.83;49.44
60212;BME280;46079;48.686;15.598;2023-04-21T02:23:41;99818.56;;;18.83;49.43
60212;BME280;46079;48.686;15.598;2023-04-21T02:26:07;99824.63;;;18.83;49.46
60212;BME280;46079;48.686;15.598;2023-04-21T02:28:32;99822.81;;;18.84;49.61
60212;BME280;46079;48.686;15.598;2023-04-21T02:30:57;99829.03;;;18.83;49.51
60212;BME280;46079;48.686;15.598;2023-04-21T02:33:23;99829.03;;;18.83;49.46
60212;BME280;46079;48.686;15.598;2023-04-21T02:35:48;99821.19;;;18.83;49.15
60212;BME280;46079;48.686;15.598;2023-04-21T02:38:13;99818.56;;;18.83;49.45
60212;BME280;46079;48.686;15.598;2023-04-21T02:40:39;99813.47;;;18.81;49.63
60212;BME280;46079;48.686;15.598;2023-04-21T02:43:05;99820.34;;;18.82;49.52
60212;BME280;46079;48.686;15.598;2023-04-21T02:45:30;99818.69;;;18.81;49.53
60212;BME280;46079;48.686;15.598;2023-04-21T02:47:56;99811.78;;;18.80;49.55
60212;BME280;46079;48.686;15.598;2023-04-21T02:50:22;99813.47;;;18.81;49.47
60212;BME280;46079;48.686;15.598;2023-04-21T02:52:48;99815.22;;;18.81;49.48
60212;BME280;46079;48.686;15.598;2023-04-21T02:55:13;99820.47;;;18.81;49.42
60212;BME280;46079;48.686;15.598;2023-04-21T02:57:38;99818.81;;;18.80;49.39
60212;BME280;46079;48.686;15.598;2023-04-21T03:00:04;99819.78;;;18.79;49.43
60212;BME280;46079;48.686;15.598;2023-04-21T03:02:32;99830.00;;;18.82;49.31
60212;BME280;46079;48.686;15.598;2023-04-21T03:04:57;99826.69;;;18.80;49.30
60212;BME280;46079;48.686;15.598;2023-04-21T03:07:22;99835.25;;;18.82;49.18
60212;BME280;46079;48.686;15.598;2023-04-21T03:09:48;99827.38;;;18.82;48.96
60212;BME280;46079;48.686;15.598;2023-04-21T03:12:13;99830.69;;;18.84;49.02
60212;BME280;46079;48.686;15.598;2023-04-21T03:14:39;99825.44;;;18.84;49.15
60212;BME280;46079;48.686;15.598;2023-04-21T03:17:04;99829.88;;;18.83;49.19
60212;BME280;46079;48.686;15.598;2023-04-21T03:19:29;99825.72;;;18.81;49.31
60212;BME280;46079;48.686;15.598;2023-04-21T03:21:58;99827.38;;;18.82;49.42
60212;BME280;46079;48.686;15.598;2023-04-21T03:24:23;99835.25;;;18.82;49.38
60212;BME280;46079;48.686;15.598;2023-04-21T03:26:48;99834.28;;;18.83;49.32
60212;BME280;46079;48.686;15.598;2023-04-21T03:29:14;99837.03;;;18.81;49.56
60212;BME280;46079;48.686;15.598;2023-04-21T03:31:39;99825.59;;;18.82;49.45
60212;BME280;46079;48.686;15.598;2023-04-21T03:34:04;99832.63;;;18.82;49.61
60212;BME280;46079;48.686;15.598;2023-04-21T03:36:30;99827.38;;;18.82;49.45
60212;BME280;46079;48.686;15.598;2023-04-21T03:38:55;99830.94;;;18.81;49.59
60212;BME280;46079;48.686;15.598;2023-04-21T03:41:22;99824.78;;;18.82;49.41
60212;BME280;46079;48.686;15.598;2023-04-21T03:43:51;99826.56;;;18.81;49.63
60212;BME280;46079;48.686;15.598;2023-04-21T03:46:20;99827.38;;;18.82;49.79
60212;BME280;46079;48.686;15.598;2023-04-21T03:48:46;99830.94;;;18.81;49.52
60212;BME280;46079;48.686;15.598;2023-04-21T03:51:12;99824.06;;;18.80;49.57
60212;BME280;46079;48.686;15.598;2023-04-21T03:53:38;99834.44;;;18.81;49.48
60212;BME280;46079;48.686;15.598;2023-04-21T03:56:03;99838.81;;;18.81;49.22
60212;BME280;46079;48.686;15.598;2023-04-21T03:58:29;99835.50;;;18.79;49.50
60212;BME280;46079;48.686;15.598;2023-04-21T04:00:55;99847.75;;;18.78;49.63
60212;BME280;46079;48.686;15.598;2023-04-21T04:03:20;99852.88;;;18.80;49.57
60212;BME280;46079;48.686;15.598;2023-04-21T04:05:46;99853.84;;;18.79;49.61
60212;BME280;46079;48.686;15.598;2023-04-21T04:08:11;99849.44;;;18.79;49.48
60212;BME280;46079;48.686;15.598;2023-04-21T04:10:36;99852.88;;;18.80;49.46
60212;BME280;46079;48.686;15.598;2023-04-21T04:13:02;99860.75;;;18.80;49.56
60212;BME280;46079;48.686;15.598;2023-04-21T04:15:27;99859.09;;;18.79;49.62
60212;BME280;46079;48.686;15.598;2023-04-21T04:17:53;99853.84;;;18.79;49.37
60212;BME280;46079;48.686;15.598;2023-04-21T04:20:18;99863.47;;;18.78;49.30
60212;BME280;46079;48.686;15.598;2023-04-21T04:22:44;99852.88;;;18.80;49.60
60212;BME280;46079;48.686;15.598;2023-04-21T04:25:09;99858.13;;;18.80;49.50
60212;BME280;46079;48.686;15.598;2023-04-21T04:27:37;99849.69;;;18.76;49.35
60212;BME280;46079;48.686;15.598;2023-04-21T04:30:03;99859.91;;;18.79;49.50
60212;BME280;46079;48.686;15.598;2023-04-21T04:32:29;99865.16;;;18.79;49.74
60212;BME280;46079;48.686;15.598;2023-04-21T04:34:55;99859.91;;;18.79;49.61
60212;BME280;46079;48.686;15.598;2023-04-21T04:37:21;99858.25;;;18.78;49.58
60212;BME280;46079;48.686;15.598;2023-04-21T04:39:46;99859.09;;;18.79;49.56
60212;BME280;46079;48.686;15.598;2023-04-21T04:42:12;99866.00;;;18.80;49.56
60212;BME280;46079;48.686;15.598;2023-04-21T04:44:38;99865.28;;;18.78;49.69
60212;BME280;46079;48.686;15.598;2023-04-21T04:47:05;99870.41;;;18.79;49.71
60212;BME280;46079;48.686;15.598;2023-04-21T04:49:31;99867.91;;;18.78;49.78
60212;BME280;46079;48.686;15.598;2023-04-21T04:51:56;99872.19;;;18.79;49.79
60212;BME280;46079;48.686;15.598;2023-04-21T04:54:22;99874.81;;;18.79;49.61
60212;BME280;46079;48.686;15.598;2023-04-21T04:56:48;99870.66;;;18.76;49.55
60212;BME280;46079;48.686;15.598;2023-04-21T04:59:14;99874.09;;;18.77;49.80
60212;BME280;46079;48.686;15.598;2023-04-21T05:01:40;99870.53;;;18.78;49.69
60212;BME280;46079;48.686;15.598;2023-04-21T05:04:06;99884.44;;;18.78;49.59
60212;BME280;46079;48.686;15.598;2023-04-21T05:06:31;99884.44;;;18.78;49.75
60212;BME280;46079;48.686;15.598;2023-04-21T05:08:57;99884.59;;;18.77;49.66
60212;BME280;46079;48.686;15.598;2023-04-21T05:11:22;99885.31;;;18.79;49.27
60212;BME280;46079;48.686;15.598;2023-04-21T05:13:47;99888.03;;;18.77;49.69
60212;BME280;46079;48.686;15.598;2023-04-21T05:16:13;99891.47;;;18.78;49.73
60212;BME280;46079;48.686;15.598;2023-04-21T05:18:38;99888.88;;;18.78;49.87
60212;BME280;46079;48.686;15.598;2023-04-21T05:21:04;99892.31;;;18.78;49.82
60212;BME280;46079;48.686;15.598;2023-04-21T05:23:29;99897.69;;;18.77;49.98
60212;BME280;46079;48.686;15.598;2023-04-21T05:25:55;99886.38;;;18.76;49.43
60212;BME280;46079;48.686;15.598;2023-04-21T05:28:20;99895.78;;;18.79;47.85
60212;BME280;46079;48.686;15.598;2023-04-21T05:30:47;99894.69;;;18.81;47.04
60212;BME280;46079;48.686;15.598;2023-04-21T05:33:12;99892.19;;;18.80;45.84
60212;BME280;46079;48.686;15.598;2023-04-21T05:35:38;99888.88;;;18.78;45.79
60212;BME280;46079;48.686;15.598;2023-04-21T05:38:04;99896.00;;;18.76;45.62
60212;BME280;46079;48.686;15.598;2023-04-21T05:40:30;99892.94;;;18.71;45.67
60212;BME280;46079;48.686;15.598;2023-04-21T05:42:55;99895.09;;;18.65;45.84
60212;BME280;46079;48.686;15.598;2023-04-21T05:45:21;99899.19;;;18.58;45.96
60212;BME280;46079;48.686;15.598;2023-04-21T05:47:46;99895.53;;;18.50;46.43
60212;BME280;46079;48.686;15.598;2023-04-21T05:50:11;99900.44;;;18.43;46.69
60212;BME280;46079;48.686;15.598;2023-04-21T05:52:37;99907.13;;;18.36;46.98
60212;BME280;46079;48.686;15.598;2023-04-21T05:55:03;99913.56;;;18.32;47.07
60212;BME280;46079;48.686;15.598;2023-04-21T05:57:28;99912.28;;;18.26;47.63
60212;BME280;46079;48.686;15.598;2023-04-21T05:59:54;99918.84;;;18.20;47.69
60212;BME280;46079;48.686;15.598;2023-04-21T06:02:19;99916.47;;;18.17;47.64
60212;BME280;46079;48.686;15.598;2023-04-21T06:04:45;99916.84;;;18.13;47.69
60212;BME280;46079;48.686;15.598;2023-04-21T06:07:10;99915.31;;;18.10;48.03
60212;BME280;46079;48.686;15.598;2023-04-21T06:09:39;99919.00;;;18.08;48.05
60212;BME280;46079;48.686;15.598;2023-04-21T06:12:05;99913.16;;;18.04;48.16
60212;BME280;46079;48.686;15.598;2023-04-21T06:14:31;99926.50;;;18.01;48.37
60212;BME280;46079;48.686;15.598;2023-04-21T06:16:57;99919.88;;;17.97;48.39
60212;BME280;46079;48.686;15.598;2023-04-21T06:19:22;99914.63;;;17.97;48.54
60212;BME280;46079;48.686;15.598;2023-04-21T06:21:48;99917.34;;;17.95;48.58
60212;BME280;46079;48.686;15.598;2023-04-21T06:24:13;99919.88;;;17.97;48.57
60212;BME280;46079;48.686;15.598;2023-04-21T06:26:39;99919.88;;;17.97;48.72
60212;BME280;46079;48.686;15.598;2023-04-21T06:29:05;99919.72;;;17.98;48.76
60212;BME280;46079;48.686;15.598;2023-04-21T06:31:30;99923.19;;;17.99;48.68
60212;BME280;46079;48.686;15.598;2023-04-21T06:33:55;99918.66;;;18.01;49.10
60212;BME280;46079;48.686;15.598;2023-04-21T06:36:21;99919.94;;;18.07;48.65
60212;BME280;46079;48.686;15.598;2023-04-21T06:38:47;99922.31;;;18.10;48.61
60212;BME280;46079;48.686;15.598;2023-04-21T06:41:13;99923.84;;;18.12;48.60
60212;BME280;46079;48.686;15.598;2023-04-21T06:43:39;99922.66;;;18.16;48.75
60212;BME280;46079;48.686;15.598;2023-04-21T06:46:05;99914.81;;;18.16;48.64
60212;BME280;46079;48.686;15.598;2023-04-21T06:48:31;99912.78;;;18.20;48.90
60212;BME280;46079;48.686;15.598;2023-04-21T06:50:56;99909.22;;;18.21;48.81
60212;BME280;46079;48.686;15.598;2023-04-21T06:53:22;99908.38;;;18.20;48.33
60212;BME280;46079;48.686;15.598;2023-04-21T06:55:51;99905.75;;;18.20;48.51
60212;BME280;46079;48.686;15.598;2023-04-21T06:58:17;99906.59;;;18.21;48.37
60212;BME280;46079;48.686;15.598;2023-04-21T07:00:42;99904.56;;;18.25;48.11
60212;BME280;46079;48.686;15.598;2023-04-21T07:03:17;99916.31;;;18.30;48.26
60212;BME280;46079;48.686;15.598;2023-04-21T07:05:43;99916.06;;;18.33;47.88
60212;BME280;46079;48.686;15.598;2023-04-21T07:08:08;99920.81;;;18.39;47.61
60212;BME280;46079;48.686;15.598;2023-04-21T07:10:33;99915.06;;;18.45;47.51
60212;BME280;46079;48.686;15.598;2023-04-21T07:12:59;99913.97;;;18.48;47.54
60212;BME280;46079;48.686;15.598;2023-04-21T07:15:24;99924.91;;;18.53;47.92
60212;BME280;46079;48.686;15.598;2023-04-21T07:17:50;99928.97;;;18.57;48.11
60212;BME280;46079;48.686;15.598;2023-04-21T07:20:15;99927.88;;;18.60;48.13
60212;BME280;46079;48.686;15.598;2023-04-21T07:22:42;99919.63;;;18.64;48.19
60212;BME280;46079;48.686;15.598;2023-04-21T07:25:08;99923.78;;;18.67;48.23
60212;BME280;46079;48.686;15.598;2023-04-21T07:27:34;99923.66;;;18.69;48.36
60212;BME280;46079;48.686;15.598;2023-04-21T07:30:02;99913.75;;;18.72;48.14
60212;BME280;46079;48.686;15.598;2023-04-21T07:32:27;99920.31;;;18.78;48.25
60212;BME280;46079;48.686;15.598;2023-04-21T07:34:53;99925.03;;;18.84;48.10
60212;BME280;46079;48.686;15.598;2023-04-21T07:37:18;99928.38;;;18.86;48.31
60212;BME280;46079;48.686;15.598;2023-04-21T07:39:43;99931.69;;;18.88;47.95
60212;BME280;46079;48.686;15.598;2023-04-21T07:42:09;99928.38;;;18.86;47.82
60212;BME280;46079;48.686;15.598;2023-04-21T07:44:35;99925.63;;;18.87;47.83
60212;BME280;46079;48.686;15.598;2023-04-21T07:47:00;99935.97;;;18.89;48.06
60212;BME280;46079;48.686;15.598;2023-04-21T07:49:26;99937.66;;;18.90;48.05
60212;BME280;46079;48.686;15.598;2023-04-21T07:51:51;99931.19;;;18.94;48.25
60212;BME280;46079;48.686;15.598;2023-04-21T07:54:16;99937.13;;;18.96;48.38
60212;BME280;46079;48.686;15.598;2023-04-21T07:56:42;99929.97;;;18.98;46.79
60212;BME280;46079;48.686;15.598;2023-04-21T07:59:07;99930.81;;;18.99;47.94
60212;BME280;46079;48.686;15.598;2023-04-21T08:01:33;99925.31;;;19.02;47.96
60212;BME280;46079;48.686;15.598;2023-04-21T08:03:58;99928.75;;;19.02;47.67
60212;BME280;46079;48.686;15.598;2023-04-21T08:06:24;99939.22;;;19.02;47.65
60212;BME280;46079;48.686;15.598;2023-04-21T08:08:49;99936.75;;;19.01;47.64
60212;BME280;46079;48.686;15.598;2023-04-21T08:11:15;99938.41;;;19.02;47.51
60212;BME280;46079;48.686;15.598;2023-04-21T08:13:40;99939.50;;;18.99;47.64
60212;BME280;46079;48.686;15.598;2023-04-21T08:16:05;99934.13;;;19.01;47.67
60212;BME280;46079;48.686;15.598;2023-04-21T08:18:31;99931.63;;;18.99;47.57
60212;BME280;46079;48.686;15.598;2023-04-21T08:20:56;99925.66;;;18.97;47.58
60212;BME280;46079;48.686;15.598;2023-04-21T08:23:22;99935.34;;;18.97;47.68
60212;BME280;46079;48.686;15.598;2023-04-21T08:25:48;99929.25;;;18.96;47.70
60212;BME280;46079;48.686;15.598;2023-04-21T08:28:13;99932.72;;;18.97;47.42
60212;BME280;46079;48.686;15.598;2023-04-21T08:30:40;99932.84;;;18.95;47.56
60212;BME280;46079;48.686;15.598;2023-04-21T08:33:06;99922.50;;;18.94;47.53
60212;BME280;46079;48.686;15.598;2023-04-21T08:35:33;99927.63;;;18.95;47.83
60212;BME280;46079;48.686;15.598;2023-04-21T08:37:58;99919.88;;;18.94;47.62
60212;BME280;46079;48.686;15.598;2023-04-21T08:40:35;99919.03;;;18.93;47.61
60212;BME280;46079;48.686;15.598;2023-04-21T08:43:06;99917.34;;;18.92;47.56
60212;BME280;46079;48.686;15.598;2023-04-21T08:45:32;99919.97;;;18.92;47.76
60212;BME280;46079;48.686;15.598;2023-04-21T08:47:59;99909.66;;;18.91;47.61
60212;BME280;46079;48.686;15.598;2023-04-21T08:50:29;99919.97;;;18.92;47.72
60212;BME280;46079;48.686;15.598;2023-04-21T08:52:55;99913.91;;;18.92;47.79
60212;BME280;46079;48.686;15.598;2023-04-21T08:55:31;99912.13;;;18.92;47.56
60212;BME280;46079;48.686;15.598;2023-04-21T08:57:57;99918.34;;;18.91;47.67
60212;BME280;46079;48.686;15.598;2023-04-21T09:00:22;99909.75;;;18.89;47.62
60212;BME280;46079;48.686;15.598;2023-04-21T09:02:53;99913.09;;;18.91;47.67
60212;BME280;46079;48.686;15.598;2023-04-21T09:05:36;99905.38;;;18.90;47.73
60212;BME280;46079;48.686;15.598;2023-04-21T09:08:10;99908.81;;;18.90;47.47
60212;BME280;46079;48.686;15.598;2023-04-21T09:10:47;99906.31;;;18.88;47.62
60212;BME280;46079;48.686;15.598;2023-04-21T09:13:13;99901.06;;;18.88;47.57
60212;BME280;46079;48.686;15.598;2023-04-21T09:15:44;99906.19;;;18.90;47.98
60212;BME280;46079;48.686;15.598;2023-04-21T09:18:15;99905.38;;;18.90;47.66
60212;BME280;46079;48.686;15.598;2023-04-21T09:20:41;99895.81;;;18.88;47.64
60212;BME280;46079;48.686;15.598;2023-04-21T09:23:08;99896.66;;;18.89;47.64
60212;BME280;46079;48.686;15.598;2023-04-21T09:25:37;99903.56;;;18.90;47.74
60212;BME280;46079;48.686;15.598;2023-04-21T09:28:08;99893.09;;;18.90;47.66
60212;BME280;46079;48.686;15.598;2023-04-21T09:30:35;99900.97;;;18.90;47.75
60212;BME280;46079;48.686;15.598;2023-04-21T09:33:01;99900.97;;;18.90;47.58
60212;BME280;46079;48.686;15.598;2023-04-21T09:35:28;99901.91;;;18.89;47.51
60212;BME280;46079;48.686;15.598;2023-04-21T09:37:53;99890.59;;;18.88;47.38
60212;BME280;46079;48.686;15.598;2023-04-21T09:40:19;99889.75;;;18.88;47.79
60212;BME280;46079;48.686;15.598;2023-04-21T09:42:45;99891.41;;;18.89;47.52
60212;BME280;46079;48.686;15.598;2023-04-21T09:45:10;99884.53;;;18.88;47.57
60212;BME280;46079;48.686;15.598;2023-04-21T09:47:41;99880.94;;;18.89;47.53
60212;BME280;46079;48.686;15.598;2023-04-21T09:50:10;99873.06;;;18.89;47.31
60212;BME280;46079;48.686;15.598;2023-04-21T09:52:38;99874.03;;;18.88;47.45
60212;BME280;46079;48.686;15.598;2023-04-21T09:55:11;99874.84;;;18.88;47.47
60212;BME280;46079;48.686;15.598;2023-04-21T09:57:38;99876.66;;;18.88;47.50
60212;BME280;46079;48.686;15.598;2023-04-21T10:00:07;99866.28;;;18.86;47.40
60212;BME280;46079;48.686;15.598;2023-04-21T10:02:34;99868.91;;;18.86;47.47
60212;BME280;46079;48.686;15.598;2023-04-21T10:05:03;99874.16;;;18.86;47.38
60212;BME280;46079;48.686;15.598;2023-04-21T10:07:29;99862.84;;;18.86;47.46
60212;BME280;46079;48.686;15.598;2023-04-21T10:09:55;99865.47;;;18.86;47.41
60212;BME280;46079;48.686;15.598;2023-04-21T10:12:24;99861.19;;;18.85;47.31
60212;BME280;46079;48.686;15.598;2023-04-21T10:14:50;99863.81;;;18.85;47.04
60212;BME280;46079;48.686;15.598;2023-04-21T10:17:24;99855.94;;;18.85;47.43
60212;BME280;46079;48.686;15.598;2023-04-21T10:19:53;99855.94;;;18.85;47.33
60212;BME280;46079;48.686;15.598;2023-04-21T10:22:32;99860.38;;;18.84;47.34
60212;BME280;46079;48.686;15.598;2023-04-21T10:25:00;99842.84;;;18.85;47.41
60212;BME280;46079;48.686;15.598;2023-04-21T10:27:36;99846.41;;;18.84;47.32
60212;BME280;46079;48.686;15.598;2023-04-21T10:30:22;99855.13;;;18.84;47.19
60212;BME280;46079;48.686;15.598;2023-04-21T10:33:02;99848.09;;;18.85;47.27
60212;BME280;46079;48.686;15.598;2023-04-21T10:35:57;99838.53;;;18.84;47.15
60212;BME280;46079;48.686;15.598;2023-04-21T10:38:42;99848.22;;;18.83;47.40
60212;BME280;46079;48.686;15.598;2023-04-21T10:41:28;99835.25;;;18.82;47.14
60212;BME280;46079;48.686;15.598;2023-04-21T10:43:59;99839.53;;;18.83;47.27
60212;BME280;46079;48.686;15.598;2023-04-21T10:46:39;99834.28;;;18.83;47.27
60212;BME280;46079;48.686;15.598;2023-04-21T10:49:24;99835.94;;;18.84;47.13
60212;BME280;46079;48.686;15.598;2023-04-21T10:54:26;99826.56;;;18.81;47.20
60212;BME280;46079;48.686;15.598;2023-04-21T10:56:56;99825.72;;;18.81;47.22
60212;BME280;46079;48.686;15.598;2023-04-21T10:59:23;99829.19;;;18.81;47.37
60212;BME280;46079;48.686;15.598;2023-04-21T11:01:48;99819.53;;;18.82;47.37
60212;BME280;46079;48.686;15.598;2023-04-21T11:04:19;99811.78;;;18.80;47.18
60212;BME280;46079;48.686;15.598;2023-04-21T11:09:29;99818.81;;;18.80;47.51
60212;BME280;46079;48.686;15.598;2023-04-21T11:11:58;99819.66;;;18.80;47.14
60212;BME280;46079;48.686;15.598;2023-04-21T11:14:24;99821.31;;;18.81;47.11
60212;BME280;46079;48.686;15.598;2023-04-21T11:16:51;99813.47;;;18.81;47.31
60212;BME280;46079;48.686;15.598;2023-04-21T11:19:16;99815.22;;;18.81;47.11
60212;BME280;46079;48.686;15.598;2023-04-21T11:21:41;99812.59;;;18.81;47.24
60212;BME280;46079;48.686;15.598;2023-04-21T11:24:07;99804.75;;;18.81;47.14
60212;BME280;46079;48.686;15.598;2023-04-21T11:26:36;99803.09;;;18.80;47.42
60212;BME280;46079;48.686;15.598;2023-04-21T11:29:07;99806.53;;;18.80;47.32
60212;BME280;46079;48.686;15.598;2023-04-21T11:31:37;99798.69;;;18.80;47.29
60212;BME280;46079;48.686;15.598;2023-04-21T11:34:04;99796.06;;;18.80;47.25
60212;BME280;46079;48.686;15.598;2023-04-21T11:36:42;99807.38;;;18.81;47.30
60212;BME280;46079;48.686;15.598;2023-04-21T11:39:09;99801.19;;;18.82;47.10
60212;BME280;46079;48.686;15.598;2023-04-21T11:41:41;99797.84;;;18.80;47.29
60212;BME280;46079;48.686;15.598;2023-04-21T11:44:07;99797.84;;;18.80;47.11
60212;BME280;46079;48.686;15.598;2023-04-21T11:46:33;99794.25;;;18.81;47.41
60212;BME280;46079;48.686;15.598;2023-04-21T11:51:31;99797.75;;;18.81;47.17
60212;BME280;46079;48.686;15.598;2023-04-21T11:53:57;99792.63;;;18.80;47.43
60212;BME280;46079;48.686;15.598;2023-04-21T11:56:23;99793.44;;;18.80;47.21
60212;BME280;46079;48.686;15.598;2023-04-21T11:58:49;99799.50;;;18.81;47.18
60212;BME280;46079;48.686;15.598;2023-04-21T12:01:16;99790.00;;;18.80;47.15
60212;BME280;46079;48.686;15.598;2023-04-21T12:03:50;99789.16;;;18.79;47.02
60212;BME280;46079;48.686;15.598;2023-04-21T12:06:25;99786.41;;;18.81;47.32
60212;BME280;46079;48.686;15.598;2023-04-21T12:09:00;99772.47;;;18.80;47.20
60212;BME280;46079;48.686;15.598;2023-04-21T12:11:30;99782.13;;;18.80;47.08
60212;BME280;46079;48.686;15.598;2023-04-21T12:13:56;99773.44;;;18.79;47.19
60212;BME280;46079;48.686;15.598;2023-04-21T12:16:26;99775.91;;;18.81;47.29
60212;BME280;46079;48.686;15.598;2023-04-21T12:18:53;99768.91;;;18.81;46.73
60212;BME280;46079;48.686;15.598;2023-04-21T12:21:18;99774.28;;;18.80;47.18
60212;BME280;46079;48.686;15.598;2023-04-21T12:23:44;99771.66;;;18.80;46.89
60212;BME280;46079;48.686;15.598;2023-04-21T12:26:10;99767.22;;;18.80;47.16
60212;BME280;46079;48.686;15.598;2023-04-21T12:28:39;99768.22;;;18.79;47.07
60212;BME280;46079;48.686;15.598;2023-04-21T12:31:05;99771.66;;;18.80;47.06
60212;BME280;46079;48.686;15.598;2023-04-21T12:33:30;99767.22;;;18.80;47.00
60212;BME280;46079;48.686;15.598;2023-04-21T12:35:56;99763.78;;;18.80;47.20
60212;BME280;46079;48.686;15.598;2023-04-21T12:38:21;99760.19;;;18.81;47.03
60212;BME280;46079;48.686;15.598;2023-04-21T12:40:47;99758.44;;;18.81;47.14
60212;BME280;46079;48.686;15.598;2023-04-21T12:43:13;99762.00;;;18.80;47.07
60212;BME280;46079;48.686;15.598;2023-04-21T12:45:38;99752.34;;;18.81;47.01
60212;BME280;46079;48.686;15.598;2023-04-21T12:48:04;99742.81;;;18.80;47.10
60212;BME280;46079;48.686;15.598;2023-04-21T12:50:33;99748.06;;;18.80;47.06
60212;BME280;46079;48.686;15.598;2023-04-21T12:52:59;99740.22;;;18.80;46.94
60212;BME280;46079;48.686;15.598;2023-04-21T12:55:24;99748.88;;;18.80;47.03
60212;BME280;46079;48.686;15.598;2023-04-21T12:57:50;99747.38;;;18.78;47.11